Impacts TAF Board
For situational awareness. Not to be used for flight planning purposes.
IDs:

KPIT - Pittsburgh Intl, PA, US

Issued at 0915 UTC 18 Jan 2019
Updated at 1012 UTC 18 Jan 2019
Potential Impact None Slight Moderate High
Time0951Z 18/11Z 18/12Z 18/13Z 18/14Z 18/15Z 18/16Z 18/17Z 18/18Z 18/19Z 18/20Z 18/21Z 18/22Z 18/23Z>>
Type OBS PRVL PRVL PRVL PRVL PRVL PRVL PRVL PRVL PRVL PRVL PRVL PRVL PRVL
VIS 0.5 4 4 >6 >6 >6 >6 >6 >6 >6 >6 >6 >6 >6
CIG 1 4 4 8 8 8 8 8 15 15 15 15 15 15
Cover OVC OVC OVC OVC OVC OVC OVC OVC OVC OVC OVC OVC OVC OVC
FltCat LIFR LIFR LIFR IFR IFR IFR IFR IFR MVFR MVFR MVFR MVFR MVFR MVFR
WX BR BR BR -- -- -- -- -- -- -- -- -- -- --
WDir 250 260 260 270 270 270 270 270 290 290 290 290 290 290
WSpd 6 5 5 6 6 6 6 6 4 4 4 4 4 4
WGst -- -- -- -- -- -- -- -- -- -- -- -- -- --
Raw TAF
KPIT 180915Z 1809/1912 23006KT 1/2SM FG VV001
  FM181100 26005KT 4SM BR OVC004
  FM181300 27006KT P6SM OVC008
  FM181800 29004KT P6SM OVC015
  FM190400 30004KT P6SM BKN025


Raw METAR
KPIT 180951Z 25006KT 1/2SM R28R/5000VP6000FT BR OVC001 01/01 A2997 RMK AO2 SFC VIS 3/4 SLP168 T00060006
KPIT 180909Z 23006KT 1/2SM R28R/4500V5000FT FG VV001 01/01 A2996 RMK AO2 T00060006
KPIT 180851Z 22005KT 1SM R28R/P6000FT BR OVC002 01/01 A2996 RMK AO2 SLP165 60000 T00060006 56002
KPIT 180751Z 19003KT 1 1/4SM BR OVC002 00/00 A2996 RMK AO2 SNE17 SLP166 P0000 T00000000

METAR Board
Radar Display
Forecast Discussion
For situational awareness. Not to be used for flight planning purposes.